sensor_id;sensor_type;location;lat;lon;timestamp;P1;durP1;ratioP1;P2;durP2;ratioP2
17955;SDS011;27666;51.498;11.966;2022-10-14T00:00:31;21.80;;;12.10;;
17955;SDS011;27666;51.498;11.966;2022-10-14T00:03:17;23.30;;;11.90;;
17955;SDS011;27666;51.498;11.966;2022-10-14T00:06:04;18.53;;;9.97;;
17955;SDS011;27666;51.498;11.966;2022-10-14T00:08:52;19.13;;;11.00;;
17955;SDS011;27666;51.498;11.966;2022-10-14T00:11:40;21.87;;;11.43;;
17955;SDS011;27666;51.498;11.966;2022-10-14T00:14:27;33.30;;;18.80;;
17955;SDS011;27666;51.498;11.966;2022-10-14T00:17:13;47.20;;;22.70;;
17955;SDS011;27666;51.498;11.966;2022-10-14T00:19:59;25.10;;;14.70;;
17955;SDS011;27666;51.498;11.966;2022-10-14T00:22:46;24.57;;;11.73;;
17955;SDS011;27666;51.498;11.966;2022-10-14T00:25:36;17.33;;;10.40;;
17955;SDS011;27666;51.498;11.966;2022-10-14T00:28:24;19.93;;;11.83;;
17955;SDS011;27666;51.498;11.966;2022-10-14T00:31:11;19.80;;;10.75;;
17955;SDS011;27666;51.498;11.966;2022-10-14T00:33:57;19.67;;;11.13;;
17955;SDS011;27666;51.498;11.966;2022-10-14T00:36:44;19.83;;;11.67;;
17955;SDS011;27666;51.498;11.966;2022-10-14T00:39:31;17.10;;;10.93;;
17955;SDS011;27666;51.498;11.966;2022-10-14T00:42:17;18.97;;;11.57;;
17955;SDS011;27666;51.498;11.966;2022-10-14T00:45:06;16.73;;;11.53;;
17955;SDS011;27666;51.498;11.966;2022-10-14T00:47:57;27.40;;;13.97;;
17955;SDS011;27666;51.498;11.966;2022-10-14T00:50:44;28.83;;;15.20;;
17955;SDS011;27666;51.498;11.966;2022-10-14T00:53:33;23.77;;;14.10;;
17955;SDS011;27666;51.498;11.966;2022-10-14T00:56:21;18.37;;;10.60;;
17955;SDS011;27666;51.498;11.966;2022-10-14T00:59:10;16.23;;;10.63;;
17955;SDS011;27666;51.498;11.966;2022-10-14T01:01:58;20.47;;;11.37;;
17955;SDS011;27666;51.498;11.966;2022-10-14T01:04:44;15.30;;;10.90;;
17955;SDS011;27666;51.498;11.966;2022-10-14T01:07:33;21.30;;;11.27;;
17955;SDS011;27666;51.498;11.966;2022-10-14T01:10:29;23.20;;;11.13;;
17955;SDS011;27666;51.498;11.966;2022-10-14T01:13:24;24.53;;;10.37;;
17955;SDS011;27666;51.498;11.966;2022-10-14T01:16:15;17.70;;;10.37;;
17955;SDS011;27666;51.498;11.966;2022-10-14T01:19:11;16.40;;;10.50;;
17955;SDS011;27666;51.498;11.966;2022-10-14T01:22:13;20.87;;;10.27;;
17955;SDS011;27666;51.498;11.966;2022-10-14T01:25:07;17.27;;;9.43;;
17955;SDS011;27666;51.498;11.966;2022-10-14T01:31:13;18.53;;;10.63;;
17955;SDS011;27666;51.498;11.966;2022-10-14T01:34:05;14.87;;;9.93;;
17955;SDS011;27666;51.498;11.966;2022-10-14T01:36:55;19.00;;;10.87;;
17955;SDS011;27666;51.498;11.966;2022-10-14T01:39:46;17.10;;;10.20;;
17955;SDS011;27666;51.498;11.966;2022-10-14T01:42:36;19.23;;;10.87;;
17955;SDS011;27666;51.498;11.966;2022-10-14T01:45:25;20.17;;;10.73;;
17955;SDS011;27666;51.498;11.966;2022-10-14T01:48:16;19.33;;;11.27;;
17955;SDS011;27666;51.498;11.966;2022-10-14T01:51:07;20.50;;;11.60;;
17955;SDS011;27666;51.498;11.966;2022-10-14T01:54:01;19.10;;;11.10;;
17955;SDS011;27666;51.498;11.966;2022-10-14T01:56:50;18.37;;;10.67;;
17955;SDS011;27666;51.498;11.966;2022-10-14T01:59:39;19.50;;;11.30;;
17955;SDS011;27666;51.498;11.966;2022-10-14T02:02:27;18.70;;;11.00;;
17955;SDS011;27666;51.498;11.966;2022-10-14T02:05:17;17.73;;;10.83;;
17955;SDS011;27666;51.498;11.966;2022-10-14T02:08:08;17.03;;;10.77;;
17955;SDS011;27666;51.498;11.966;2022-10-14T02:11:01;23.70;;;13.07;;
17955;SDS011;27666;51.498;11.966;2022-10-14T02:14:04;20.30;;;11.60;;
17955;SDS011;27666;51.498;11.966;2022-10-14T02:16:58;21.30;;;12.10;;
17955;SDS011;27666;51.498;11.966;2022-10-14T02:19:49;16.77;;;10.65;;
17955;SDS011;27666;51.498;11.966;2022-10-14T02:22:41;23.83;;;12.13;;
17955;SDS011;27666;51.498;11.966;2022-10-14T02:25:33;19.67;;;11.60;;
17955;SDS011;27666;51.498;11.966;2022-10-14T02:28:24;19.93;;;11.03;;
17955;SDS011;27666;51.498;11.966;2022-10-14T02:31:15;21.53;;;11.40;;
17955;SDS011;27666;51.498;11.966;2022-10-14T02:34:05;19.93;;;11.40;;
17955;SDS011;27666;51.498;11.966;2022-10-14T02:36:54;20.70;;;11.23;;
17955;SDS011;27666;51.498;11.966;2022-10-14T02:39:45;17.70;;;11.47;;
17955;SDS011;27666;51.498;11.966;2022-10-14T02:42:36;20.73;;;10.87;;
17955;SDS011;27666;51.498;11.966;2022-10-14T02:45:23;17.10;;;10.90;;
17955;SDS011;27666;51.498;11.966;2022-10-14T02:48:10;19.00;;;12.00;;
17955;SDS011;27666;51.498;11.966;2022-10-14T02:50:57;22.17;;;11.93;;
17955;SDS011;27666;51.498;11.966;2022-10-14T02:53:44;24.47;;;11.53;;
17955;SDS011;27666;51.498;11.966;2022-10-14T02:56:31;21.63;;;11.03;;
17955;SDS011;27666;51.498;11.966;2022-10-14T02:59:18;17.97;;;11.43;;
17955;SDS011;27666;51.498;11.966;2022-10-14T03:02:04;19.50;;;11.57;;
17955;SDS011;27666;51.498;11.966;2022-10-14T03:04:51;19.17;;;11.50;;
17955;SDS011;27666;51.498;11.966;2022-10-14T03:07:38;21.73;;;12.03;;
17955;SDS011;27666;51.498;11.966;2022-10-14T03:10:24;20.17;;;10.87;;
17955;SDS011;27666;51.498;11.966;2022-10-14T03:13:11;18.08;;;11.27;;
17955;SDS011;27666;51.498;11.966;2022-10-14T03:15:58;20.97;;;11.73;;
17955;SDS011;27666;51.498;11.966;2022-10-14T03:18:44;17.33;;;10.73;;
17955;SDS011;27666;51.498;11.966;2022-10-14T03:21:31;20.53;;;12.33;;
17955;SDS011;27666;51.498;11.966;2022-10-14T03:24:17;20.03;;;12.47;;
17955;SDS011;27666;51.498;11.966;2022-10-14T03:27:04;19.07;;;11.83;;
17955;SDS011;27666;51.498;11.966;2022-10-14T03:29:51;21.97;;;12.23;;
17955;SDS011;27666;51.498;11.966;2022-10-14T03:32:38;19.00;;;11.57;;
17955;SDS011;27666;51.498;11.966;2022-10-14T03:35:24;18.77;;;12.13;;
17955;SDS011;27666;51.498;11.966;2022-10-14T03:38:10;25.73;;;13.23;;
17955;SDS011;27666;51.498;11.966;2022-10-14T03:40:57;25.17;;;11.93;;
17955;SDS011;27666;51.498;11.966;2022-10-14T03:43:44;22.13;;;11.60;;
17955;SDS011;27666;51.498;11.966;2022-10-14T03:46:31;20.17;;;11.90;;
17955;SDS011;27666;51.498;11.966;2022-10-14T03:49:18;23.33;;;11.30;;
17955;SDS011;27666;51.498;11.966;2022-10-14T03:52:04;18.23;;;11.83;;
17955;SDS011;27666;51.498;11.966;2022-10-14T03:54:51;19.53;;;11.83;;
17955;SDS011;27666;51.498;11.966;2022-10-14T03:57:37;27.13;;;14.20;;
17955;SDS011;27666;51.498;11.966;2022-10-14T04:00:23;29.43;;;16.50;;
17955;SDS011;27666;51.498;11.966;2022-10-14T04:03:11;28.07;;;13.13;;
17955;SDS011;27666;51.498;11.966;2022-10-14T04:05:58;21.70;;;12.97;;
17955;SDS011;27666;51.498;11.966;2022-10-14T04:08:44;21.67;;;12.27;;
17955;SDS011;27666;51.498;11.966;2022-10-14T04:11:31;20.53;;;11.80;;
17955;SDS011;27666;51.498;11.966;2022-10-14T04:14:17;20.70;;;12.70;;
17955;SDS011;27666;51.498;11.966;2022-10-14T04:17:03;21.90;;;12.30;;
17955;SDS011;27666;51.498;11.966;2022-10-14T04:19:51;19.73;;;11.93;;
17955;SDS011;27666;51.498;11.966;2022-10-14T04:22:38;26.20;;;13.00;;
17955;SDS011;27666;51.498;11.966;2022-10-14T04:25:24;25.53;;;14.60;;
17955;SDS011;27666;51.498;11.966;2022-10-14T04:28:11;20.70;;;12.17;;
17955;SDS011;27666;51.498;11.966;2022-10-14T04:30:58;17.33;;;11.87;;
17955;SDS011;27666;51.498;11.966;2022-10-14T04:33:44;18.53;;;11.97;;
17955;SDS011;27666;51.498;11.966;2022-10-14T04:36:32;21.53;;;11.63;;
17955;SDS011;27666;51.498;11.966;2022-10-14T04:39:19;18.30;;;11.63;;
17955;SDS011;27666;51.498;11.966;2022-10-14T04:42:05;23.07;;;12.20;;
17955;SDS011;27666;51.498;11.966;2022-10-14T04:44:52;18.67;;;11.17;;
17955;SDS011;27666;51.498;11.966;2022-10-14T04:47:38;21.67;;;11.93;;
17955;SDS011;27666;51.498;11.966;2022-10-14T04:50:31;31.90;;;13.63;;
17955;SDS011;27666;51.498;11.966;2022-10-14T04:53:19;29.77;;;14.07;;
17955;SDS011;27666;51.498;11.966;2022-10-14T04:56:06;23.00;;;13.00;;
17955;SDS011;27666;51.498;11.966;2022-10-14T04:58:53;24.60;;;13.03;;
17955;SDS011;27666;51.498;11.966;2022-10-14T05:01:39;29.80;;;12.77;;
17955;SDS011;27666;51.498;11.966;2022-10-14T05:04:26;23.93;;;12.67;;
17955;SDS011;27666;51.498;11.966;2022-10-14T05:07:12;25.27;;;13.60;;
17955;SDS011;27666;51.498;11.966;2022-10-14T05:10:00;24.13;;;13.27;;
17955;SDS011;27666;51.498;11.966;2022-10-14T05:12:48;25.70;;;14.00;;
17955;SDS011;27666;51.498;11.966;2022-10-14T05:15:34;23.13;;;12.80;;
17955;SDS011;27666;51.498;11.966;2022-10-14T05:18:20;20.77;;;11.17;;
17955;SDS011;27666;51.498;11.966;2022-10-14T05:21:07;27.30;;;13.23;;
17955;SDS011;27666;51.498;11.966;2022-10-14T05:23:53;29.27;;;13.60;;
17955;SDS011;27666;51.498;11.966;2022-10-14T05:26:41;23.07;;;13.83;;
17955;SDS011;27666;51.498;11.966;2022-10-14T05:29:27;27.20;;;13.77;;
17955;SDS011;27666;51.498;11.966;2022-10-14T05:32:13;24.67;;;13.50;;
17955;SDS011;27666;51.498;11.966;2022-10-14T05:35:01;21.23;;;12.83;;
17955;SDS011;27666;51.498;11.966;2022-10-14T05:37:47;21.77;;;14.07;;
17955;SDS011;27666;51.498;11.966;2022-10-14T05:40:38;23.77;;;12.57;;
17955;SDS011;27666;51.498;11.966;2022-10-14T05:43:26;25.23;;;13.87;;
17955;SDS011;27666;51.498;11.966;2022-10-14T05:46:17;20.87;;;12.10;;
17955;SDS011;27666;51.498;11.966;2022-10-14T05:49:04;27.30;;;13.13;;
17955;SDS011;27666;51.498;11.966;2022-10-14T05:51:50;19.37;;;12.70;;
17955;SDS011;27666;51.498;11.966;2022-10-14T05:54:37;21.90;;;12.20;;
17955;SDS011;27666;51.498;11.966;2022-10-14T05:57:23;23.57;;;12.37;;
17955;SDS011;27666;51.498;11.966;2022-10-14T06:00:11;22.53;;;12.23;;
17955;SDS011;27666;51.498;11.966;2022-10-14T06:03:07;23.70;;;12.47;;
17955;SDS011;27666;51.498;11.966;2022-10-14T06:05:56;23.67;;;13.40;;
17955;SDS011;27666;51.498;11.966;2022-10-14T06:08:43;24.17;;;13.20;;
17955;SDS011;27666;51.498;11.966;2022-10-14T06:11:30;19.63;;;11.47;;
17955;SDS011;27666;51.498;11.966;2022-10-14T06:14:17;26.93;;;12.50;;
17955;SDS011;27666;51.498;11.966;2022-10-14T06:17:04;25.20;;;14.17;;
17955;SDS011;27666;51.498;11.966;2022-10-14T06:19:51;21.13;;;12.07;;
17955;SDS011;27666;51.498;11.966;2022-10-14T06:22:37;28.27;;;12.20;;
17955;SDS011;27666;51.498;11.966;2022-10-14T06:25:24;21.58;;;11.57;;
17955;SDS011;27666;51.498;11.966;2022-10-14T06:28:11;19.45;;;11.70;;
17955;SDS011;27666;51.498;11.966;2022-10-14T06:30:58;25.30;;;11.70;;
17955;SDS011;27666;51.498;11.966;2022-10-14T06:33:46;27.38;;;12.38;;
17955;SDS011;27666;51.498;11.966;2022-10-14T06:36:33;16.83;;;11.85;;
17955;SDS011;27666;51.498;11.966;2022-10-14T06:39:20;18.63;;;11.82;;
17955;SDS011;27666;51.498;11.966;2022-10-14T06:42:06;20.73;;;12.15;;
17955;SDS011;27666;51.498;11.966;2022-10-14T06:45:05;23.58;;;11.20;;
17955;SDS011;27666;51.498;11.966;2022-10-14T06:47:51;21.58;;;12.55;;
17955;SDS011;27666;51.498;11.966;2022-10-14T06:50:40;21.10;;;12.63;;
17955;SDS011;27666;51.498;11.966;2022-10-14T06:53:26;19.35;;;11.68;;
17955;SDS011;27666;51.498;11.966;2022-10-14T06:56:13;25.45;;;12.05;;
17955;SDS011;27666;51.498;11.966;2022-10-14T06:58:59;20.00;;;11.55;;
17955;SDS011;27666;51.498;11.966;2022-10-14T07:01:46;22.33;;;12.27;;
17955;SDS011;27666;51.498;11.966;2022-10-14T07:04:32;18.15;;;11.20;;
17955;SDS011;27666;51.498;11.966;2022-10-14T07:07:20;18.65;;;12.23;;
17955;SDS011;27666;51.498;11.966;2022-10-14T07:10:07;19.25;;;11.60;;
17955;SDS011;27666;51.498;11.966;2022-10-14T07:12:54;17.58;;;11.38;;
17955;SDS011;27666;51.498;11.966;2022-10-14T07:15:40;17.20;;;11.45;;
17955;SDS011;27666;51.498;11.966;2022-10-14T07:18:27;22.80;;;11.52;;
17955;SDS011;27666;51.498;11.966;2022-10-14T07:21:13;19.73;;;11.18;;
17955;SDS011;27666;51.498;11.966;2022-10-14T07:24:01;19.85;;;12.23;;
17955;SDS011;27666;51.498;11.966;2022-10-14T07:26:47;20.50;;;11.90;;
17955;SDS011;27666;51.498;11.966;2022-10-14T07:29:34;41.35;;;23.90;;
17955;SDS011;27666;51.498;11.966;2022-10-14T07:32:21;19.38;;;12.77;;
17955;SDS011;27666;51.498;11.966;2022-10-14T07:35:07;22.45;;;11.75;;
17955;SDS011;27666;51.498;11.966;2022-10-14T07:37:56;23.00;;;11.05;;
17955;SDS011;27666;51.498;11.966;2022-10-14T07:40:45;18.67;;;11.15;;
17955;SDS011;27666;51.498;11.966;2022-10-14T07:43:41;19.98;;;11.30;;
17955;SDS011;27666;51.498;11.966;2022-10-14T07:46:28;22.58;;;11.75;;
17955;SDS011;27666;51.498;11.966;2022-10-14T07:49:16;34.35;;;16.88;;
17955;SDS011;27666;51.498;11.966;2022-10-14T07:52:04;25.35;;;12.27;;
17955;SDS011;27666;51.498;11.966;2022-10-14T07:54:51;13.10;;;9.82;;
17955;SDS011;27666;51.498;11.966;2022-10-14T07:57:38;18.70;;;10.00;;
17955;SDS011;27666;51.498;11.966;2022-10-14T08:00:25;17.23;;;9.75;;
17955;SDS011;27666;51.498;11.966;2022-10-14T08:03:11;18.67;;;9.82;;
17955;SDS011;27666;51.498;11.966;2022-10-14T08:05:58;13.45;;;9.48;;
17955;SDS011;27666;51.498;11.966;2022-10-14T08:08:45;18.60;;;10.10;;
17955;SDS011;27666;51.498;11.966;2022-10-14T08:11:33;14.82;;;9.52;;
17955;SDS011;27666;51.498;11.966;2022-10-14T08:14:21;41.80;;;21.60;;
17955;SDS011;27666;51.498;11.966;2022-10-14T08:17:07;14.30;;;9.68;;
17955;SDS011;27666;51.498;11.966;2022-10-14T08:19:54;23.88;;;9.52;;
17955;SDS011;27666;51.498;11.966;2022-10-14T08:22:40;15.70;;;8.73;;
17955;SDS011;27666;51.498;11.966;2022-10-14T08:25:26;13.98;;;8.57;;
17955;SDS011;27666;51.498;11.966;2022-10-14T08:28:14;14.55;;;8.82;;
17955;SDS011;27666;51.498;11.966;2022-10-14T08:31:02;16.67;;;8.23;;
17955;SDS011;27666;51.498;11.966;2022-10-14T08:33:48;19.45;;;10.35;;
17955;SDS011;27666;51.498;11.966;2022-10-14T08:36:34;13.75;;;8.63;;
17955;SDS011;27666;51.498;11.966;2022-10-14T08:39:21;19.58;;;9.00;;
17955;SDS011;27666;51.498;11.966;2022-10-14T08:42:11;10.98;;;7.85;;
17955;SDS011;27666;51.498;11.966;2022-10-14T08:45:16;18.13;;;8.95;;
17955;SDS011;27666;51.498;11.966;2022-10-14T08:48:09;16.10;;;7.30;;
17955;SDS011;27666;51.498;11.966;2022-10-14T08:50:58;13.07;;;7.30;;
17955;SDS011;27666;51.498;11.966;2022-10-14T08:53:50;10.55;;;7.25;;
17955;SDS011;27666;51.498;11.966;2022-10-14T08:56:43;11.23;;;7.07;;
17955;SDS011;27666;51.498;11.966;2022-10-14T08:59:30;11.43;;;7.88;;
17955;SDS011;27666;51.498;11.966;2022-10-14T09:02:22;13.57;;;7.30;;
17955;SDS011;27666;51.498;11.966;2022-10-14T09:05:17;11.65;;;7.15;;
17955;SDS011;27666;51.498;11.966;2022-10-14T09:08:05;11.93;;;6.50;;
17955;SDS011;27666;51.498;11.966;2022-10-14T09:11:00;10.05;;;6.20;;
17955;SDS011;27666;51.498;11.966;2022-10-14T09:13:47;8.57;;;6.28;;
17955;SDS011;27666;51.498;11.966;2022-10-14T09:16:35;9.70;;;5.93;;
17955;SDS011;27666;51.498;11.966;2022-10-14T09:19:25;7.22;;;5.28;;
17955;SDS011;27666;51.498;11.966;2022-10-14T09:22:17;9.98;;;5.88;;
17955;SDS011;27666;51.498;11.966;2022-10-14T09:25:05;8.82;;;4.88;;
17955;SDS011;27666;51.498;11.966;2022-10-14T09:27:57;5.05;;;4.07;;
17955;SDS011;27666;51.498;11.966;2022-10-14T09:30:43;10.52;;;5.00;;
17955;SDS011;27666;51.498;11.966;2022-10-14T09:33:30;6.72;;;4.28;;
17955;SDS011;27666;51.498;11.966;2022-10-14T09:36:23;8.35;;;5.07;;
17955;SDS011;27666;51.498;11.966;2022-10-14T09:39:12;11.90;;;5.00;;
17955;SDS011;27666;51.498;11.966;2022-10-14T09:41:59;8.25;;;5.10;;
17955;SDS011;27666;51.498;11.966;2022-10-14T09:44:58;9.02;;;4.85;;
17955;SDS011;27666;51.498;11.966;2022-10-14T09:47:55;8.15;;;5.10;;
17955;SDS011;27666;51.498;11.966;2022-10-14T09:50:47;6.43;;;4.70;;
17955;SDS011;27666;51.498;11.966;2022-10-14T09:53:35;4.90;;;3.40;;
17955;SDS011;27666;51.498;11.966;2022-10-14T09:56:28;4.85;;;3.70;;
17955;SDS011;27666;51.498;11.966;2022-10-14T09:59:16;7.07;;;3.30;;
17955;SDS011;27666;51.498;11.966;2022-10-14T10:02:04;4.38;;;3.75;;
17955;SDS011;27666;51.498;11.966;2022-10-14T10:05:11;4.55;;;3.55;;
17955;SDS011;27666;51.498;11.966;2022-10-14T10:07:59;6.40;;;3.67;;
17955;SDS011;27666;51.498;11.966;2022-10-14T10:13:56;4.15;;;3.22;;
17955;SDS011;27666;51.498;11.966;2022-10-14T10:16:43;4.20;;;3.00;;
17955;SDS011;27666;51.498;11.966;2022-10-14T10:19:31;5.97;;;2.85;;
17955;SDS011;27666;51.498;11.966;2022-10-14T10:22:20;6.78;;;3.22;;
17955;SDS011;27666;51.498;11.966;2022-10-14T10:25:17;3.83;;;3.20;;
17955;SDS011;27666;51.498;11.966;2022-10-14T10:28:15;6.18;;;2.83;;
17955;SDS011;27666;51.498;11.966;2022-10-14T10:31:08;7.53;;;3.15;;
17955;SDS011;27666;51.498;11.966;2022-10-14T10:34:09;7.40;;;3.10;;
17955;SDS011;27666;51.498;11.966;2022-10-14T10:37:25;6.65;;;3.47;;
17955;SDS011;27666;51.498;11.966;2022-10-14T10:40:19;5.32;;;3.30;;
17955;SDS011;27666;51.498;11.966;2022-10-14T10:43:20;6.43;;;4.18;;
17955;SDS011;27666;51.498;11.966;2022-10-14T10:46:38;5.10;;;3.30;;
17955;SDS011;27666;51.498;11.966;2022-10-14T10:49:45;4.05;;;3.20;;
17955;SDS011;27666;51.498;11.966;2022-10-14T10:52:48;3.72;;;3.00;;
17955;SDS011;27666;51.498;11.966;2022-10-14T10:55:46;6.53;;;3.20;;
17955;SDS011;27666;51.498;11.966;2022-10-14T10:58:41;4.30;;;2.88;;
17955;SDS011;27666;51.498;11.966;2022-10-14T11:01:38;37.10;;;10.23;;
17955;SDS011;27666;51.498;11.966;2022-10-14T11:04:31;14.02;;;7.93;;
17955;SDS011;27666;51.498;11.966;2022-10-14T11:07:22;10.00;;;5.82;;
17955;SDS011;27666;51.498;11.966;2022-10-14T11:10:35;9.00;;;3.92;;
17955;SDS011;27666;51.498;11.966;2022-10-14T11:13:46;6.00;;;3.10;;
17955;SDS011;27666;51.498;11.966;2022-10-14T11:16:38;5.68;;;3.08;;
17955;SDS011;27666;51.498;11.966;2022-10-14T11:19:33;5.35;;;3.10;;
17955;SDS011;27666;51.498;11.966;2022-10-14T11:22:28;5.25;;;2.35;;
17955;SDS011;27666;51.498;11.966;2022-10-14T11:25:25;3.30;;;2.50;;
17955;SDS011;27666;51.498;11.966;2022-10-14T11:28:25;2.55;;;2.20;;
17955;SDS011;27666;51.498;11.966;2022-10-14T11:31:23;2.70;;;2.50;;
17955;SDS011;27666;51.498;11.966;2022-10-14T11:34:23;4.82;;;2.70;;
17955;SDS011;27666;51.498;11.966;2022-10-14T11:37:25;7.35;;;2.33;;
17955;SDS011;27666;51.498;11.966;2022-10-14T11:40:16;3.38;;;2.55;;
17955;SDS011;27666;51.498;11.966;2022-10-14T11:43:09;5.00;;;3.05;;
17955;SDS011;27666;51.498;11.966;2022-10-14T11:46:05;3.60;;;2.45;;
17955;SDS011;27666;51.498;11.966;2022-10-14T11:48:55;2.35;;;2.15;;
17955;SDS011;27666;51.498;11.966;2022-10-14T11:51:46;3.25;;;2.88;;
17955;SDS011;27666;51.498;11.966;2022-10-14T11:54:37;2.53;;;2.33;;
17955;SDS011;27666;51.498;11.966;2022-10-14T11:57:27;2.58;;;2.30;;
17955;SDS011;27666;51.498;11.966;2022-10-14T12:03:47;4.30;;;3.00;;
17955;SDS011;27666;51.498;11.966;2022-10-14T12:06:42;6.93;;;3.58;;
17955;SDS011;27666;51.498;11.966;2022-10-14T12:09:34;5.68;;;3.45;;
17955;SDS011;27666;51.498;11.966;2022-10-14T12:12:24;2.95;;;2.30;;
17955;SDS011;27666;51.498;11.966;2022-10-14T12:15:13;5.80;;;2.03;;
17955;SDS011;27666;51.498;11.966;2022-10-14T12:18:03;4.47;;;2.70;;
17955;SDS011;27666;51.498;11.966;2022-10-14T12:20:52;2.63;;;2.30;;
17955;SDS011;27666;51.498;11.966;2022-10-14T12:23:45;3.53;;;2.35;;
17955;SDS011;27666;51.498;11.966;2022-10-14T12:26:41;5.55;;;2.40;;
17955;SDS011;27666;51.498;11.966;2022-10-14T12:29:35;7.32;;;4.32;;
17955;SDS011;27666;51.498;11.966;2022-10-14T12:32:23;5.80;;;2.80;;
17955;SDS011;27666;51.498;11.966;2022-10-14T12:35:43;8.88;;;3.47;;
17955;SDS011;27666;51.498;11.966;2022-10-14T12:38:32;4.50;;;2.15;;
17955;SDS011;27666;51.498;11.966;2022-10-14T12:41:36;7.82;;;3.00;;
17955;SDS011;27666;51.498;11.966;2022-10-14T12:44:29;2.90;;;2.40;;
17955;SDS011;27666;51.498;11.966;2022-10-14T12:47:22;3.25;;;2.22;;
17955;SDS011;27666;51.498;11.966;2022-10-14T12:50:21;4.95;;;2.20;;
17955;SDS011;27666;51.498;11.966;2022-10-14T12:53:15;4.22;;;2.85;;
17955;SDS011;27666;51.498;11.966;2022-10-14T12:56:06;21.98;;;12.20;;
17955;SDS011;27666;51.498;11.966;2022-10-14T12:58:56;7.80;;;5.78;;
17955;SDS011;27666;51.498;11.966;2022-10-14T13:01:46;2.38;;;2.10;;
17955;SDS011;27666;51.498;11.966;2022-10-14T13:04:45;3.55;;;2.28;;
17955;SDS011;27666;51.498;11.966;2022-10-14T13:07:37;3.45;;;2.40;;
17955;SDS011;27666;51.498;11.966;2022-10-14T13:10:39;2.85;;;1.80;;
17955;SDS011;27666;51.498;11.966;2022-10-14T13:13:49;3.80;;;1.80;;
17955;SDS011;27666;51.498;11.966;2022-10-14T13:23:38;2.03;;;1.70;;
17955;SDS011;27666;51.498;11.966;2022-10-14T13:26:30;3.92;;;1.95;;
17955;SDS011;27666;51.498;11.966;2022-10-14T13:29:25;11.23;;;8.13;;
17955;SDS011;27666;51.498;11.966;2022-10-14T13:32:26;15.60;;;8.80;;
17955;SDS011;27666;51.498;11.966;2022-10-14T13:35:20;2.40;;;2.05;;
17955;SDS011;27666;51.498;11.966;2022-10-14T13:38:12;3.65;;;2.03;;
17955;SDS011;27666;51.498;11.966;2022-10-14T13:41:01;5.38;;;2.17;;
17955;SDS011;27666;51.498;11.966;2022-10-14T13:43:50;3.67;;;2.20;;
17955;SDS011;27666;51.498;11.966;2022-10-14T13:46:41;2.30;;;1.88;;
17955;SDS011;27666;51.498;11.966;2022-10-14T13:49:32;18.33;;;10.80;;
17955;SDS011;27666;51.498;11.966;2022-10-14T13:52:23;7.85;;;4.30;;
17955;SDS011;27666;51.498;11.966;2022-10-14T13:55:14;3.55;;;2.30;;
17955;SDS011;27666;51.498;11.966;2022-10-14T13:58:07;2.53;;;2.30;;
17955;SDS011;27666;51.498;11.966;2022-10-14T14:00:59;2.00;;;1.90;;
17955;SDS011;27666;51.498;11.966;2022-10-14T14:03:51;4.35;;;2.80;;
17955;SDS011;27666;51.498;11.966;2022-10-14T14:06:41;2.85;;;1.88;;
17955;SDS011;27666;51.498;11.966;2022-10-14T14:09:51;3.08;;;1.77;;
17955;SDS011;27666;51.498;11.966;2022-10-14T14:12:40;1.63;;;1.52;;
17955;SDS011;27666;51.498;11.966;2022-10-14T14:15:28;3.25;;;2.28;;
17955;SDS011;27666;51.498;11.966;2022-10-14T14:18:28;4.00;;;2.00;;
17955;SDS011;27666;51.498;11.966;2022-10-14T14:21:41;2.65;;;1.85;;
17955;SDS011;27666;51.498;11.966;2022-10-14T14:24:27;3.88;;;2.13;;
17955;SDS011;27666;51.498;11.966;2022-10-14T14:27:15;8.50;;;4.40;;
17955;SDS011;27666;51.498;11.966;2022-10-14T14:30:15;17.13;;;10.15;;
17955;SDS011;27666;51.498;11.966;2022-10-14T14:33:08;6.32;;;2.50;;
17955;SDS011;27666;51.498;11.966;2022-10-14T14:35:59;3.20;;;2.30;;
17955;SDS011;27666;51.498;11.966;2022-10-14T14:38:52;4.13;;;2.50;;
17955;SDS011;27666;51.498;11.966;2022-10-14T14:41:47;6.85;;;2.22;;
17955;SDS011;27666;51.498;11.966;2022-10-14T14:44:35;2.30;;;2.10;;
17955;SDS011;27666;51.498;11.966;2022-10-14T14:47:23;7.47;;;2.08;;
17955;SDS011;27666;51.498;11.966;2022-10-14T14:50:11;2.10;;;1.90;;
17955;SDS011;27666;51.498;11.966;2022-10-14T14:53:17;3.75;;;2.50;;
17955;SDS011;27666;51.498;11.966;2022-10-14T14:56:07;5.78;;;2.38;;
17955;SDS011;27666;51.498;11.966;2022-10-14T14:59:00;2.38;;;2.17;;
17955;SDS011;27666;51.498;11.966;2022-10-14T15:01:52;11.48;;;2.33;;
17955;SDS011;27666;51.498;11.966;2022-10-14T15:04:39;2.63;;;2.38;;
17955;SDS011;27666;51.498;11.966;2022-10-14T15:07:26;9.60;;;2.70;;
17955;SDS011;27666;51.498;11.966;2022-10-14T15:10:18;2.03;;;1.92;;
17955;SDS011;27666;51.498;11.966;2022-10-14T15:13:22;2.00;;;1.90;;
17955;SDS011;27666;51.498;11.966;2022-10-14T15:19:26;5.35;;;2.65;;
17955;SDS011;27666;51.498;11.966;2022-10-14T15:22:23;4.68;;;2.97;;
17955;SDS011;27666;51.498;11.966;2022-10-14T15:25:21;4.78;;;2.45;;
17955;SDS011;27666;51.498;11.966;2022-10-14T15:28:26;3.35;;;2.58;;
17955;SDS011;27666;51.498;11.966;2022-10-14T15:31:15;3.92;;;2.15;;
17955;SDS011;27666;51.498;11.966;2022-10-14T15:34:01;2.65;;;2.20;;
17955;SDS011;27666;51.498;11.966;2022-10-14T15:36:49;9.00;;;3.97;;
17955;SDS011;27666;51.498;11.966;2022-10-14T15:39:37;5.43;;;2.70;;
17955;SDS011;27666;51.498;11.966;2022-10-14T15:42:23;3.33;;;2.50;;
17955;SDS011;27666;51.498;11.966;2022-10-14T15:45:11;7.38;;;2.97;;
17955;SDS011;27666;51.498;11.966;2022-10-14T15:48:00;4.78;;;2.67;;
17955;SDS011;27666;51.498;11.966;2022-10-14T15:50:50;5.20;;;2.53;;
17955;SDS011;27666;51.498;11.966;2022-10-14T15:53:36;5.60;;;2.40;;
17955;SDS011;27666;51.498;11.966;2022-10-14T15:56:23;2.83;;;2.13;;
17955;SDS011;27666;51.498;11.966;2022-10-14T15:59:10;2.95;;;2.20;;
17955;SDS011;27666;51.498;11.966;2022-10-14T16:02:00;3.60;;;2.72;;
17955;SDS011;27666;51.498;11.966;2022-10-14T16:04:48;3.97;;;2.80;;
17955;SDS011;27666;51.498;11.966;2022-10-14T16:07:55;5.72;;;3.95;;
17955;SDS011;27666;51.498;11.966;2022-10-14T16:10:42;6.82;;;2.88;;
17955;SDS011;27666;51.498;11.966;2022-10-14T16:13:29;7.85;;;2.85;;
17955;SDS011;27666;51.498;11.966;2022-10-14T16:16:16;4.50;;;3.55;;
17955;SDS011;27666;51.498;11.966;2022-10-14T16:19:08;3.50;;;2.70;;
17955;SDS011;27666;51.498;11.966;2022-10-14T16:21:54;3.55;;;2.40;;
17955;SDS011;27666;51.498;11.966;2022-10-14T16:24:41;4.35;;;2.97;;
17955;SDS011;27666;51.498;11.966;2022-10-14T16:27:27;3.47;;;3.15;;
17955;SDS011;27666;51.498;11.966;2022-10-14T16:30:13;3.53;;;2.95;;
17955;SDS011;27666;51.498;11.966;2022-10-14T16:33:00;6.38;;;2.72;;
17955;SDS011;27666;51.498;11.966;2022-10-14T16:35:49;8.30;;;4.30;;
17955;SDS011;27666;51.498;11.966;2022-10-14T16:38:37;6.15;;;4.15;;
17955;SDS011;27666;51.498;11.966;2022-10-14T16:41:24;8.45;;;3.63;;
17955;SDS011;27666;51.498;11.966;2022-10-14T16:44:10;3.90;;;3.22;;
17955;SDS011;27666;51.498;11.966;2022-10-14T16:47:08;5.78;;;3.75;;
17955;SDS011;27666;51.498;11.966;2022-10-14T16:50:00;6.93;;;3.55;;
17955;SDS011;27666;51.498;11.966;2022-10-14T16:52:49;8.70;;;4.10;;
17955;SDS011;27666;51.498;11.966;2022-10-14T16:55:55;5.80;;;4.10;;